createdAt,value
2023-05-20T00:00:55.597Z,100285.21
2023-05-20T00:03:22.955Z,100287.13
2023-05-20T00:05:50.204Z,100284.83
2023-05-20T00:08:18.874Z,100282.33
2023-05-20T00:10:45.779Z,100284.24
2023-05-20T00:13:12.807Z,100283.13
2023-05-20T00:15:39.672Z,100279.52
2023-05-20T00:18:06.827Z,100281.36
2023-05-20T00:20:33.862Z,100276.17
2023-05-20T00:23:01.015Z,100278.73
2023-05-20T00:25:27.979Z,100279.33
2023-05-20T00:27:54.865Z,100279.95
2023-05-20T00:30:22.381Z,100277.96
2023-05-20T00:32:49.514Z,100278.77
2023-05-20T00:35:16.628Z,100280.27
2023-05-20T00:37:59.816Z,100277.20
2023-05-20T00:40:27.174Z,100280.83
2023-05-20T00:42:54.843Z,100283.85
2023-05-20T00:45:21.833Z,100284.05
2023-05-20T00:47:48.970Z,100285.66
2023-05-20T00:50:16.879Z,100280.94
2023-05-20T00:52:45.629Z,100282.21
2023-05-20T00:55:12.516Z,100281.06
2023-05-20T00:57:39.429Z,100282.16
2023-05-20T01:00:08.116Z,100282.01
2023-05-20T01:02:35.123Z,100279.40
2023-05-20T01:05:02.478Z,100279.93
2023-05-20T01:07:29.471Z,100277.35
2023-05-20T01:09:56.475Z,100275.45
2023-05-20T01:12:30.883Z,100272.27
2023-05-20T01:15:06.800Z,100268.77
2023-05-20T01:17:33.983Z,100264.52
2023-05-20T01:20:02.324Z,100267.86
2023-05-20T01:22:29.506Z,100265.95
2023-05-20T01:24:57.376Z,100268.30
2023-05-20T01:27:26.881Z,100269.91
2023-05-20T01:29:54.455Z,100269.69
2023-05-20T01:32:23.267Z,100268.68
2023-05-20T01:34:51.276Z,100269.64
2023-05-20T01:37:19.908Z,100270.95
2023-05-20T01:39:47.024Z,100269.14
2023-05-20T01:42:14.275Z,100269.77
2023-05-20T01:44:42.405Z,100269.71
2023-05-20T01:47:09.319Z,100271.98
2023-05-20T01:49:36.221Z,100273.36
2023-05-20T01:52:03.766Z,100274.52
2023-05-20T01:54:30.873Z,100273.97
2023-05-20T01:56:57.897Z,100277.06
2023-05-20T01:59:25.028Z,100279.83
2023-05-20T02:01:52.008Z,100281.55
2023-05-20T02:04:19.365Z,100277.48
2023-05-20T02:06:46.603Z,100280.27
2023-05-20T02:09:14.669Z,100279.23
2023-05-20T02:11:41.598Z,100277.01
2023-05-20T02:14:08.683Z,100277.11
2023-05-20T02:16:35.747Z,100278.76
2023-05-20T02:19:03.037Z,100279.30
2023-05-20T02:21:30.011Z,100279.64
2023-05-20T02:23:57.012Z,100277.17
2023-05-20T02:26:23.863Z,100278.37
2023-05-20T02:28:51.113Z,100277.17
2023-05-20T02:31:18.227Z,100276.61
2023-05-20T02:33:45.877Z,100281.48
2023-05-20T02:36:12.925Z,100279.89
2023-05-20T02:38:40.064Z,100280.55
2023-05-20T02:41:06.999Z,100277.63
2023-05-20T02:43:34.041Z,100280.82
2023-05-20T02:46:01.385Z,100287.15
2023-05-20T02:48:28.663Z,100288.04
2023-05-20T02:50:55.923Z,100286.06
2023-05-20T02:53:23.079Z,100291.35
2023-05-20T02:55:50.753Z,100289.94
2023-05-20T02:58:17.898Z,100297.52
2023-05-20T03:00:45.078Z,100303.48
2023-05-20T03:03:13.715Z,100302.23
2023-05-20T03:05:42.682Z,100306.48
2023-05-20T03:08:10.164Z,100302.09
2023-05-20T03:10:40.617Z,100304.18
2023-05-20T03:13:09.197Z,100305.20
2023-05-20T03:15:40.486Z,100309.07
2023-05-20T03:18:08.660Z,100311.02
2023-05-20T03:20:37.153Z,100310.48
2023-05-20T03:23:07.636Z,100314.67
2023-05-20T03:25:36.975Z,100314.83
2023-05-20T03:28:04.256Z,100313.25
2023-05-20T03:30:31.715Z,100319.16
2023-05-20T03:32:58.899Z,100314.04
2023-05-20T03:35:26.626Z,100309.95
2023-05-20T03:37:54.734Z,100309.59
2023-05-20T03:40:23.088Z,100314.59
2023-05-20T03:42:53.018Z,100315.89
2023-05-20T03:45:20.999Z,100311.81
2023-05-20T03:47:57.928Z,100314.98
2023-05-20T03:50:25.014Z,100310.70
2023-05-20T03:52:51.965Z,100312.10
2023-05-20T03:55:20.756Z,100314.99
2023-05-20T03:57:47.779Z,100312.78
2023-05-20T04:00:16.992Z,100311.85
2023-05-20T04:02:44.145Z,100315.59
2023-05-20T04:05:12.050Z,100317.33
2023-05-20T04:07:39.619Z,100320.45
2023-05-20T04:10:08.149Z,100317.33
2023-05-20T04:12:36.897Z,100325.58
2023-05-20T04:15:04.253Z,100332.79
2023-05-20T04:17:43.936Z,100328.95
2023-05-20T04:20:11.973Z,100330.52
2023-05-20T04:22:40.059Z,100329.36
2023-05-20T04:25:08.142Z,100332.10
2023-05-20T04:27:35.283Z,100335.67
2023-05-20T04:30:02.854Z,100338.16
2023-05-20T04:32:32.101Z,100335.94
2023-05-20T04:35:00.150Z,100336.58
2023-05-20T04:37:27.302Z,100339.27
2023-05-20T04:39:54.290Z,100339.15
2023-05-20T04:42:22.562Z,100342.80
2023-05-20T04:44:49.731Z,100347.71
2023-05-20T04:47:16.655Z,100346.20
2023-05-20T04:49:43.928Z,100350.87
2023-05-20T04:52:11.034Z,100351.20
2023-05-20T04:54:40.443Z,100353.23
2023-05-20T04:57:07.809Z,100350.10
2023-05-20T04:59:35.471Z,100345.15
2023-05-20T05:02:02.897Z,100348.33
2023-05-20T05:04:29.990Z,100349.35
2023-05-20T05:06:57.245Z,100348.45
2023-05-20T05:09:24.398Z,100349.31
2023-05-20T05:11:52.417Z,100347.52
2023-05-20T05:14:19.636Z,100345.73
2023-05-20T05:16:46.686Z,100344.36
2023-05-20T05:19:13.941Z,100344.79
2023-05-20T05:21:41.336Z,100347.00
2023-05-20T05:24:08.771Z,100347.02
2023-05-20T05:26:36.103Z,100346.55
2023-05-20T05:29:03.605Z,100347.09
2023-05-20T05:31:30.865Z,100348.90
2023-05-20T05:33:58.532Z,100348.88
2023-05-20T05:36:28.461Z,100349.40
2023-05-20T05:38:56.217Z,100346.95
2023-05-20T05:41:23.170Z,100348.58
2023-05-20T05:43:52.071Z,100353.02
2023-05-20T05:46:19.148Z,100353.16
2023-05-20T05:48:49.113Z,100354.35
2023-05-20T05:51:17.311Z,100351.03
2023-05-20T05:53:44.603Z,100352.63
2023-05-20T05:56:11.727Z,100352.27
2023-05-20T05:58:38.725Z,100352.71
2023-05-20T06:01:07.105Z,100352.48
2023-05-20T06:03:35.473Z,100353.30
2023-05-20T06:06:02.849Z,100353.83
2023-05-20T06:08:30.165Z,100347.23
2023-05-20T06:10:57.042Z,100345.66
2023-05-20T06:13:24.177Z,100345.45
2023-05-20T06:15:51.144Z,100345.77
2023-05-20T06:18:18.102Z,100341.21
2023-05-20T06:20:45.418Z,100344.84
2023-05-20T06:23:12.593Z,100342.41
2023-05-20T06:25:51.235Z,100340.31
2023-05-20T06:28:19.145Z,100337.41
2023-05-20T06:30:46.139Z,100338.50
2023-05-20T06:33:13.298Z,100341.58
2023-05-20T06:35:40.273Z,100340.77
2023-05-20T06:38:07.420Z,100342.30
2023-05-20T06:40:34.352Z,100340.48
2023-05-20T06:43:01.408Z,100338.64
2023-05-20T06:45:48.872Z,100333.73
2023-05-20T06:48:36.040Z,100336.20
2023-05-20T06:51:04.282Z,100337.20
2023-05-20T06:53:31.190Z,100333.35
2023-05-20T06:55:58.436Z,100333.16
2023-05-20T06:58:26.436Z,100334.08
2023-05-20T07:00:55.145Z,100336.67
2023-05-20T07:03:22.092Z,100337.05
2023-05-20T07:05:49.194Z,100333.02
2023-05-20T07:08:16.259Z,100328.23
2023-05-20T07:10:43.478Z,100329.22
2023-05-20T07:13:10.571Z,100326.19
2023-05-20T07:15:37.494Z,100321.02
2023-05-20T07:18:05.097Z,100324.98
2023-05-20T07:20:32.821Z,100323.20
2023-05-20T07:23:04.514Z,100325.49
2023-05-20T07:25:38.022Z,100326.50
2023-05-20T07:28:05.181Z,100326.70
2023-05-20T07:30:32.628Z,100330.59
2023-05-20T07:33:20.304Z,100332.26
2023-05-20T07:35:48.020Z,100336.23
2023-05-20T07:38:15.186Z,100331.84
2023-05-20T07:40:43.677Z,100331.17
2023-05-20T07:43:11.026Z,100327.85
2023-05-20T07:45:38.250Z,100328.44
2023-05-20T07:48:08.896Z,100326.67
2023-05-20T07:50:36.795Z,100326.52
2023-05-20T07:53:04.363Z,100328.80
2023-05-20T07:55:37.157Z,100323.50
2023-05-20T07:58:05.245Z,100317.77
2023-05-20T08:00:34.304Z,100316.91
2023-05-20T08:03:03.084Z,100317.17
2023-05-20T08:05:38.780Z,100317.38
2023-05-20T08:08:06.231Z,100319.27
2023-05-20T08:10:42.701Z,100313.90
2023-05-20T08:13:10.055Z,100314.52
2023-05-20T08:15:37.821Z,100318.84
2023-05-20T08:18:05.047Z,100315.81
2023-05-20T08:20:32.411Z,100315.08
2023-05-20T08:22:59.491Z,100317.91
2023-05-20T08:25:26.406Z,100315.40
2023-05-20T08:27:54.011Z,100313.01
2023-05-20T08:30:21.429Z,100313.39
2023-05-20T08:32:49.196Z,100318.85
2023-05-20T08:35:16.312Z,100318.97
2023-05-20T08:37:43.312Z,100323.09
2023-05-20T08:40:12.051Z,100322.84
2023-05-20T08:42:43.708Z,100318.79
2023-05-20T08:45:12.751Z,100313.91
2023-05-20T08:47:42.491Z,100311.80
2023-05-20T08:50:13.831Z,100309.56
2023-05-20T08:52:49.311Z,100311.09
2023-05-20T08:55:31.316Z,100304.96
2023-05-20T08:57:58.575Z,100307.81
2023-05-20T09:00:29.161Z,100309.06
2023-05-20T09:02:58.029Z,100306.21
2023-05-20T09:05:27.414Z,100299.34
2023-05-20T09:08:05.519Z,100301.29
2023-05-20T09:10:34.572Z,100305.58
2023-05-20T09:13:02.913Z,100307.98
2023-05-20T09:15:31.108Z,100313.56
2023-05-20T09:18:03.733Z,100312.85
2023-05-20T09:20:31.917Z,100316.47
2023-05-20T09:23:02.686Z,100315.89
2023-05-20T09:25:29.721Z,100313.89
2023-05-20T09:27:56.654Z,100313.26
2023-05-20T09:30:23.909Z,100312.23
2023-05-20T09:32:55.540Z,100313.66
2023-05-20T09:35:27.156Z,100311.38
2023-05-20T09:37:56.655Z,100312.45
2023-05-20T09:40:31.012Z,100314.50
2023-05-20T09:43:04.590Z,100315.66
2023-05-20T09:45:31.658Z,100316.14
2023-05-20T09:47:59.149Z,100317.48
2023-05-20T09:50:26.258Z,100314.69
2023-05-20T09:52:53.778Z,100313.06
2023-05-20T09:55:25.179Z,100308.27
2023-05-20T09:57:52.124Z,100306.48
2023-05-20T10:00:20.022Z,100307.02
2023-05-20T10:02:48.890Z,100309.30
2023-05-20T10:05:24.228Z,100305.92
2023-05-20T10:08:03.530Z,100308.17
2023-05-20T10:10:51.710Z,100310.44
2023-05-20T10:13:27.689Z,100311.13
2023-05-20T10:15:57.811Z,100310.80
2023-05-20T10:18:42.928Z,100304.60
2023-05-20T10:21:17.711Z,100302.92
2023-05-20T10:23:44.843Z,100294.41
2023-05-20T10:26:11.932Z,100295.39
2023-05-20T10:28:40.987Z,100297.10
2023-05-20T10:31:18.786Z,100293.30
2023-05-20T10:33:46.211Z,100290.95
2023-05-20T10:36:24.324Z,100287.54
2023-05-20T10:38:58.271Z,100290.98
2023-05-20T10:41:27.330Z,100289.52
2023-05-20T10:44:04.289Z,100291.48
2023-05-20T10:46:40.110Z,100289.58
2023-05-20T10:49:22.302Z,100294.73
2023-05-20T10:51:51.812Z,100293.51
2023-05-20T10:54:18.864Z,100292.56
2023-05-20T10:56:53.725Z,100286.05
2023-05-20T10:59:24.236Z,100283.72
2023-05-20T11:01:51.384Z,100285.05
2023-05-20T11:04:19.754Z,100282.46
2023-05-20T11:06:51.712Z,100287.33
2023-05-20T11:09:18.797Z,100290.30
2023-05-20T11:11:45.849Z,100291.61
2023-05-20T11:14:17.400Z,100289.72
2023-05-20T11:16:44.862Z,100287.42
2023-05-20T11:19:16.784Z,100290.00
2023-05-20T11:21:44.793Z,100288.73
2023-05-20T11:24:12.879Z,100285.35
2023-05-20T11:26:40.561Z,100285.59
2023-05-20T11:29:07.851Z,100286.42
2023-05-20T11:31:34.984Z,100288.16
2023-05-20T11:34:02.497Z,100286.41
2023-05-20T11:36:30.506Z,100285.23
2023-05-20T11:38:58.975Z,100288.75
2023-05-20T11:41:28.940Z,100287.84
2023-05-20T11:43:59.508Z,100285.59
2023-05-20T11:46:27.505Z,100283.31
2023-05-20T11:48:55.132Z,100279.39
2023-05-20T11:51:27.444Z,100279.10
2023-05-20T11:53:59.829Z,100279.08
2023-05-20T11:56:28.594Z,100278.47
2023-05-20T11:58:57.920Z,100276.80
2023-05-20T12:01:24.977Z,100274.38
2023-05-20T12:03:52.697Z,100273.48
2023-05-20T12:06:20.021Z,100268.58
2023-05-20T12:08:47.696Z,100268.16
2023-05-20T12:11:14.790Z,100263.95
2023-05-20T12:13:44.277Z,100261.50
2023-05-20T12:16:11.269Z,100265.58
2023-05-20T12:18:38.367Z,100259.09
2023-05-20T12:21:05.284Z,100257.13
2023-05-20T12:23:34.329Z,100253.46
2023-05-20T12:26:01.479Z,100254.83
2023-05-20T12:28:29.481Z,100256.29
2023-05-20T12:30:56.501Z,100254.56
2023-05-20T12:33:23.423Z,100254.83
2023-05-20T12:35:50.559Z,100246.73
2023-05-20T12:38:17.862Z,100249.91
2023-05-20T12:40:44.756Z,100251.97
2023-05-20T12:43:11.677Z,100250.48
2023-05-20T12:45:38.918Z,100245.42
2023-05-20T12:48:08.103Z,100243.15
2023-05-20T12:50:35.673Z,100240.40
2023-05-20T12:53:03.048Z,100235.97
2023-05-20T12:55:30.471Z,100237.67
2023-05-20T12:57:57.399Z,100230.75
2023-05-20T13:00:27.525Z,100229.98
2023-05-20T13:02:55.086Z,100228.35
2023-05-20T13:05:22.433Z,100227.24
2023-05-20T13:07:51.970Z,100226.90
2023-05-20T13:10:21.378Z,100222.67
2023-05-20T13:12:48.607Z,100222.54
2023-05-20T13:15:15.974Z,100219.08
2023-05-20T13:17:43.026Z,100217.52
2023-05-20T13:20:11.244Z,100214.59
2023-05-20T13:22:38.253Z,100212.39
2023-05-20T13:25:05.737Z,100207.44
2023-05-20T13:27:32.642Z,100199.45
2023-05-20T13:30:02.008Z,100208.41
2023-05-20T13:32:29.034Z,100208.47
2023-05-20T13:35:00.064Z,100209.79
2023-05-20T13:37:27.368Z,100211.19
2023-05-20T13:39:54.364Z,100215.81
2023-05-20T13:42:21.610Z,100211.44
2023-05-20T13:44:48.527Z,100209.02
2023-05-20T13:47:15.385Z,100209.11
2023-05-20T13:49:42.291Z,100209.54
2023-05-20T13:52:09.224Z,100209.63
2023-05-20T13:54:36.410Z,100207.05
2023-05-20T13:57:07.960Z,100205.27
2023-05-20T13:59:35.378Z,100204.92
2023-05-20T14:02:03.330Z,100203.27
2023-05-20T14:04:31.515Z,100201.46
2023-05-20T14:06:59.502Z,100203.20
2023-05-20T14:09:26.553Z,100202.90
2023-05-20T14:11:53.640Z,100204.40
2023-05-20T14:14:21.019Z,100198.95
2023-05-20T14:16:48.175Z,100201.21
2023-05-20T14:19:15.150Z,100201.63
2023-05-20T14:21:42.271Z,100203.98
2023-05-20T14:24:09.205Z,100197.59
2023-05-20T14:26:36.200Z,100199.41
2023-05-20T14:29:03.332Z,100199.77
2023-05-20T14:31:30.235Z,100197.41
2023-05-20T14:33:57.336Z,100197.83
2023-05-20T14:36:24.277Z,100197.31
2023-05-20T14:38:51.745Z,100193.46
2023-05-20T14:41:18.817Z,100193.63
2023-05-20T14:43:45.960Z,100191.04
2023-05-20T14:46:13.030Z,100184.23
2023-05-20T14:48:40.015Z,100188.56
2023-05-20T14:51:06.950Z,100186.19
2023-05-20T14:53:33.895Z,100182.94
2023-05-20T14:56:01.027Z,100178.54
2023-05-20T14:58:27.905Z,100176.23
2023-05-20T15:00:54.823Z,100173.81
2023-05-20T15:03:23.676Z,100171.21
2023-05-20T15:05:50.905Z,100166.69
2023-05-20T15:08:17.931Z,100164.90
2023-05-20T15:10:44.922Z,100157.95
2023-05-20T15:13:11.933Z,100158.31
2023-05-20T15:15:38.987Z,100157.50
2023-05-20T15:18:06.066Z,100152.32
2023-05-20T15:20:33.104Z,100150.15
2023-05-20T15:23:01.043Z,100151.79
2023-05-20T15:25:28.083Z,100153.20
2023-05-20T15:27:54.973Z,100146.95
2023-05-20T15:30:23.153Z,100143.77
2023-05-20T15:32:50.336Z,100144.27
2023-05-20T15:35:17.522Z,100145.92
2023-05-20T15:37:44.534Z,100146.32
2023-05-20T15:40:12.290Z,100147.64
2023-05-20T15:42:39.342Z,100140.53
2023-05-20T15:45:07.413Z,100141.50
2023-05-20T15:47:34.523Z,100144.23
2023-05-20T15:50:05.378Z,100145.41
2023-05-20T15:52:32.500Z,100144.76
2023-05-20T15:54:59.524Z,100145.17
2023-05-20T15:57:26.401Z,100145.52
2023-05-20T15:59:53.532Z,100145.27
2023-05-20T16:02:20.966Z,100148.09
2023-05-20T16:04:48.478Z,100146.36
2023-05-20T16:07:15.719Z,100146.66
2023-05-20T16:09:43.084Z,100149.04
2023-05-20T16:12:10.127Z,100154.97
2023-05-20T16:14:37.087Z,100153.81
2023-05-20T16:17:04.446Z,100153.11
2023-05-20T16:19:31.541Z,100153.00
2023-05-20T16:21:58.581Z,100149.49
2023-05-20T16:24:25.530Z,100146.16
2023-05-20T16:26:53.421Z,100147.27
2023-05-20T16:29:20.538Z,100148.52
2023-05-20T16:31:47.808Z,100151.40
2023-05-20T16:34:15.972Z,100147.33
2023-05-20T16:36:43.085Z,100150.93
2023-05-20T16:39:10.035Z,100152.59
2023-05-20T16:41:37.064Z,100153.19
2023-05-20T16:44:04.185Z,100153.05
2023-05-20T16:46:31.175Z,100151.45
2023-05-20T16:48:58.232Z,100153.30
2023-05-20T16:51:25.120Z,100155.17
2023-05-20T16:53:52.294Z,100156.68
2023-05-20T16:56:21.808Z,100152.39
2023-05-20T16:58:50.583Z,100151.73
2023-05-20T17:01:19.327Z,100150.05
2023-05-20T17:03:46.377Z,100151.41
2023-05-20T17:06:13.515Z,100149.10
2023-05-20T17:08:40.861Z,100149.38
2023-05-20T17:11:07.752Z,100153.53
2023-05-20T17:13:34.669Z,100158.08
2023-05-20T17:16:01.736Z,100163.89
2023-05-20T17:18:28.717Z,100167.20
2023-05-20T17:20:55.891Z,100168.16
2023-05-20T17:23:22.980Z,100162.44
2023-05-20T17:25:49.939Z,100161.49
2023-05-20T17:28:16.814Z,100164.20
2023-05-20T17:30:43.755Z,100164.04
2023-05-20T17:33:11.343Z,100161.41
2023-05-20T17:35:38.358Z,100161.80
2023-05-20T17:38:05.361Z,100163.08
2023-05-20T17:40:32.396Z,100164.41
2023-05-20T17:42:59.448Z,100168.90
2023-05-20T17:45:26.459Z,100168.43
2023-05-20T17:47:53.540Z,100166.03
2023-05-20T17:50:20.604Z,100165.54
2023-05-20T17:52:47.730Z,100159.77
2023-05-20T17:55:14.996Z,100158.39
2023-05-20T17:57:42.053Z,100158.28
2023-05-20T18:00:09.569Z,100160.70
2023-05-20T18:02:38.552Z,100164.11
2023-05-20T18:05:06.481Z,100163.84
2023-05-20T18:07:33.519Z,100168.30
2023-05-20T18:10:00.470Z,100170.84
2023-05-20T18:12:27.305Z,100171.23
2023-05-20T18:14:54.208Z,100173.22
2023-05-20T18:17:21.077Z,100172.36
2023-05-20T18:19:48.082Z,100175.98
2023-05-20T18:22:15.156Z,100180.69
2023-05-20T18:24:42.680Z,100186.05
2023-05-20T18:27:09.605Z,100191.08
2023-05-20T18:29:36.500Z,100194.18
2023-05-20T18:32:03.510Z,100192.79
2023-05-20T18:34:33.219Z,100197.27
2023-05-20T18:37:00.894Z,100200.33
2023-05-20T18:39:27.784Z,100204.04
2023-05-20T18:41:54.716Z,100206.91
2023-05-20T18:44:21.758Z,100208.73
2023-05-20T18:46:48.663Z,100210.05
2023-05-20T18:49:15.997Z,100209.59
2023-05-20T18:51:43.051Z,100208.98
2023-05-20T18:54:10.109Z,100210.80
2023-05-20T18:56:37.264Z,100213.84
2023-05-20T18:59:04.147Z,100216.65
2023-05-20T19:01:31.543Z,100213.84
2023-05-20T19:03:58.477Z,100211.03
2023-05-20T19:06:25.473Z,100205.92
2023-05-20T19:08:52.425Z,100206.28
2023-05-20T19:11:22.770Z,100208.85
2023-05-20T19:13:49.709Z,100213.67
2023-05-20T19:16:16.709Z,100215.09
2023-05-20T19:18:43.817Z,100215.80
2023-05-20T19:21:10.846Z,100217.38
2023-05-20T19:23:37.925Z,100219.31
2023-05-20T19:26:05.085Z,100219.88
2023-05-20T19:28:31.953Z,100223.48
2023-05-20T19:30:58.909Z,100219.67
2023-05-20T19:33:26.239Z,100221.10
2023-05-20T19:35:53.299Z,100222.56
2023-05-20T19:38:20.347Z,100223.61
2023-05-20T19:40:48.026Z,100228.20
2023-05-20T19:43:14.964Z,100228.59
2023-05-20T19:45:42.102Z,100230.84
2023-05-20T19:48:09.224Z,100228.81
2023-05-20T19:50:36.559Z,100224.04
2023-05-20T19:53:06.563Z,100224.23
2023-05-20T19:55:35.611Z,100225.88
2023-05-20T19:58:03.133Z,100231.77
2023-05-20T20:00:30.122Z,100228.08
2023-05-20T20:02:57.763Z,100229.30
2023-05-20T20:05:26.135Z,100227.95
2023-05-20T20:07:53.343Z,100227.00
2023-05-20T20:10:20.347Z,100228.92
2023-05-20T20:12:47.510Z,100231.31
2023-05-20T20:15:14.680Z,100233.65
2023-05-20T20:17:45.701Z,100230.10
2023-05-20T20:20:14.338Z,100231.06
2023-05-20T20:22:41.954Z,100231.45
2023-05-20T20:25:09.103Z,100234.32
2023-05-20T20:27:36.585Z,100236.84
2023-05-20T20:30:04.210Z,100236.13
2023-05-20T20:32:31.315Z,100232.95
2023-05-20T20:34:58.343Z,100229.31
2023-05-20T20:37:27.146Z,100225.11
2023-05-20T20:39:56.950Z,100222.86
2023-05-20T20:42:23.905Z,100225.15
2023-05-20T20:44:52.672Z,100223.96
2023-05-20T20:47:19.785Z,100223.27
2023-05-20T20:49:46.906Z,100221.52
2023-05-20T20:52:13.855Z,100222.23
2023-05-20T20:54:42.880Z,100221.90
2023-05-20T20:57:09.984Z,100224.35
2023-05-20T20:59:37.077Z,100224.02
2023-05-20T21:02:04.754Z,100223.58
2023-05-20T21:04:33.115Z,100227.10
2023-05-20T21:07:02.237Z,100231.04
2023-05-20T21:09:29.506Z,100231.41
2023-05-20T21:11:57.363Z,100233.53
2023-05-20T21:14:25.538Z,100230.45
2023-05-20T21:16:52.713Z,100227.80
2023-05-20T21:19:19.934Z,100229.20
2023-05-20T21:21:47.105Z,100229.21
2023-05-20T21:24:14.053Z,100228.80
2023-05-20T21:26:41.008Z,100229.36
2023-05-20T21:29:10.215Z,100229.36
2023-05-20T21:31:37.339Z,100232.06
2023-05-20T21:34:04.416Z,100232.95
2023-05-20T21:36:32.522Z,100238.02
2023-05-20T21:38:59.577Z,100233.71
2023-05-20T21:41:27.415Z,100231.02
2023-05-20T21:43:54.481Z,100233.99
2023-05-20T21:46:21.597Z,100233.36
2023-05-20T21:48:48.661Z,100237.23
2023-05-20T21:51:15.842Z,100239.48
2023-05-20T21:53:43.123Z,100240.55
2023-05-20T21:56:10.157Z,100238.42
2023-05-20T21:58:41.337Z,100242.80
2023-05-20T22:01:10.260Z,100242.73
2023-05-20T22:03:38.475Z,100249.53
2023-05-20T22:06:06.345Z,100247.39
2023-05-20T22:08:36.379Z,100247.94
2023-05-20T22:11:07.634Z,100252.23
2023-05-20T22:13:35.769Z,100250.10
2023-05-20T22:16:05.085Z,100248.50
2023-05-20T22:18:32.295Z,100242.54
2023-05-20T22:21:00.322Z,100238.23
2023-05-20T22:23:27.846Z,100236.11
2023-05-20T22:25:55.470Z,100238.10
2023-05-20T22:28:47.801Z,100239.93
2023-05-20T22:31:14.810Z,100237.93
2023-05-20T22:33:42.497Z,100232.77
2023-05-20T22:36:09.872Z,100228.93
2023-05-20T22:38:37.733Z,100227.92
2023-05-20T22:41:04.985Z,100226.73
2023-05-20T22:43:32.025Z,100231.48
2023-05-20T22:45:59.037Z,100228.64
2023-05-20T22:48:26.132Z,100228.64
2023-05-20T22:50:54.392Z,100230.52
2023-05-20T22:53:21.416Z,100231.14
2023-05-20T22:55:48.764Z,100231.79
2023-05-20T22:58:15.724Z,100229.59
2023-05-20T23:00:44.589Z,100230.04
2023-05-20T23:03:12.310Z,100232.11
2023-05-20T23:05:39.341Z,100234.48
2023-05-20T23:08:06.766Z,100229.35
2023-05-20T23:10:33.751Z,100222.17
2023-05-20T23:13:00.908Z,100219.23
2023-05-20T23:15:28.130Z,100215.35
2023-05-20T23:17:55.127Z,100212.95
2023-05-20T23:20:22.581Z,100209.98
2023-05-20T23:22:49.554Z,100204.10
2023-05-20T23:25:16.510Z,100200.65
2023-05-20T23:27:43.741Z,100207.10
2023-05-20T23:30:11.236Z,100209.40
2023-05-20T23:32:38.475Z,100205.52
2023-05-20T23:35:06.837Z,100205.41
2023-05-20T23:37:34.669Z,100206.31
2023-05-20T23:40:01.670Z,100206.91
2023-05-20T23:42:29.170Z,100209.09
2023-05-20T23:44:56.187Z,100208.87
2023-05-20T23:47:26.087Z,100204.56
2023-05-20T23:49:56.536Z,100205.70
2023-05-20T23:52:26.908Z,100201.09
2023-05-20T23:54:53.921Z,100202.40
2023-05-20T23:57:21.084Z,100200.16
2023-05-20T23:59:51.422Z,100200.87
